Time;durP1;ratioP1;P1;durP2;ratioP2;P2;SDS_P1;SDS_P2;PMS_P1;PMS_P2;Temp;Humidity;BMP_temperature;BMP_pressure;BME280_temperature;BME280_humidity;BME280_pressure;Samples;Min_cycle;Max_cycle;Signal;HPM_P1;HPM_P2
2021/07/03 00:01:21;;;;;;;5.57;4.97;;;18.80;99.90;;;;;;5066785;28;20189;-68
2021/07/03 00:03:46;;;;;;;5.87;4.70;;;18.70;99.90;;;;;;5068058;28;20177;-68
2021/07/03 00:06:12;;;;;;;7.90;4.80;;;18.60;99.90;;;;;;5069690;28;20185;-68
2021/07/03 00:08:37;;;;;;;5.53;5.03;;;18.60;99.90;;;;;;5069754;28;20273;-68
2021/07/03 00:11:06;;;;;;;7.17;5.20;;;18.60;99.90;;;;;;5068639;28;20460;-69
2021/07/03 00:13:31;;;;;;;9.63;5.40;;;18.40;99.90;;;;;;5070005;28;20264;-68
2021/07/03 00:15:57;;;;;;;5.60;4.90;;;18.30;99.90;;;;;;5069266;28;20325;-70
2021/07/03 00:18:23;;;;;;;5.80;4.87;;;18.30;99.90;;;;;;5062762;28;20224;-69
2021/07/03 00:20:49;;;;;;;6.20;5.20;;;18.30;99.90;;;;;;5068589;28;20181;-68
2021/07/03 00:23:14;;;;;;;7.03;5.40;;;18.30;99.90;;;;;;5069824;28;20541;-69
2021/07/03 00:25:40;;;;;;;6.40;4.97;;;18.30;99.90;;;;;;5069795;28;20185;-69
2021/07/03 00:28:06;;;;;;;6.23;5.00;;;18.30;99.90;;;;;;5069291;28;20513;-67
2021/07/03 00:30:31;;;;;;;5.73;4.97;;;18.30;99.90;;;;;;5069478;28;20176;-67
2021/07/03 00:32:57;;;;;;;5.17;4.67;;;18.30;99.90;;;;;;5069339;28;20616;-68
2021/07/03 00:35:22;;;;;;;6.37;5.00;;;18.40;99.90;;;;;;5066916;28;20605;-66
2021/07/03 00:37:48;;;;;;;9.37;5.40;;;18.40;99.90;;;;;;5068619;28;20240;-66
2021/07/03 00:40:14;;;;;;;5.47;4.90;;;18.40;99.90;;;;;;5068876;28;20212;-69
2021/07/03 00:42:40;;;;;;;6.23;5.27;;;18.40;99.90;;;;;;5069638;28;20196;-68
2021/07/03 00:45:06;;;;;;;5.53;5.03;;;18.40;99.90;;;;;;5069104;28;20184;-68
2021/07/03 00:47:33;;;;;;;8.23;6.33;;;18.20;99.90;;;;;;5048051;28;20205;-68
2021/07/03 00:49:58;;;;;;;7.40;5.60;;;17.70;99.90;;;;;;5065915;28;20250;-68
2021/07/03 00:52:24;;;;;;;8.13;5.87;;;17.40;99.90;;;;;;5061287;28;20185;-71
2021/07/03 00:54:50;;;;;;;5.90;5.33;;;17.20;99.90;;;;;;5068573;28;20226;-70
2021/07/03 00:57:17;;;;;;;6.30;5.60;;;16.70;99.90;;;;;;5068306;28;20197;-69
2021/07/03 00:59:46;;;;;;;7.47;5.33;;;16.60;99.90;;;;;;5069107;28;20188;-70
2021/07/03 01:02:15;;;;;;;6.73;5.30;;;16.50;99.90;;;;;;5067465;28;20177;-68
2021/07/03 01:04:41;;;;;;;7.73;4.93;;;16.40;99.90;;;;;;5069212;28;20181;-69
2021/07/03 01:07:09;;;;;;;6.43;4.47;;;16.40;99.90;;;;;;5068266;28;20193;-70
2021/07/03 01:09:35;;;;;;;5.60;5.10;;;16.40;99.90;;;;;;5065928;28;20617;-70
2021/07/03 01:12:01;;;;;;;5.83;4.90;;;16.30;99.90;;;;;;5069805;28;20522;-70
2021/07/03 01:14:27;;;;;;;5.40;4.77;;;16.20;99.90;;;;;;5070891;28;20675;-70
2021/07/03 01:16:53;;;;;;;6.90;5.60;;;16.00;99.90;;;;;;5090941;22;20205;-71
2021/07/03 01:19:20;;;;;;;7.20;5.13;;;16.00;99.90;;;;;;5064568;28;20203;-71
2021/07/03 01:21:53;;;;;;;5.70;5.20;;;16.00;99.90;;;;;;5068921;28;20209;-70
2021/07/03 01:24:19;;;;;;;6.87;5.73;;;16.00;99.90;;;;;;5069250;28;20267;-70
2021/07/03 01:26:53;;;;;;;8.27;5.90;;;16.00;99.90;;;;;;5069430;28;20181;-70
2021/07/03 01:29:22;;;;;;;7.77;6.20;;;16.10;99.90;;;;;;5051719;28;20296;-71
2021/07/03 01:31:49;;;;;;;6.87;5.80;;;16.10;99.90;;;;;;5069362;28;20192;-71
2021/07/03 01:34:17;;;;;;;5.07;4.57;;;16.10;99.90;;;;;;5069231;28;20177;-71
2021/07/03 01:36:43;;;;;;;7.23;5.93;;;16.00;99.90;;;;;;5069394;28;20177;-71
2021/07/03 01:39:09;;;;;;;6.27;5.40;;;16.10;99.90;;;;;;5069553;28;20201;-71
2021/07/03 01:41:35;;;;;;;6.70;6.00;;;16.00;99.90;;;;;;5068924;28;20189;-72
2021/07/03 01:44:02;;;;;;;5.93;5.33;;;16.00;99.90;;;;;;5069020;28;20204;-71
2021/07/03 01:46:28;;;;;;;6.13;5.53;;;15.90;99.90;;;;;;5069651;28;20177;-71
2021/07/03 01:48:53;;;;;;;8.63;6.37;;;16.00;99.90;;;;;;5069278;28;20209;-70
2021/07/03 01:51:19;;;;;;;7.00;6.33;;;16.10;99.90;;;;;;5072245;28;20181;-71
2021/07/03 01:53:44;;;;;;;9.13;8.17;;;16.10;99.90;;;;;;5071998;28;20200;-70
2021/07/03 01:56:10;;;;;;;8.90;7.87;;;16.20;99.90;;;;;;5071987;28;20173;-70
2021/07/03 01:58:36;;;;;;;11.17;8.63;;;16.20;99.90;;;;;;5069026;28;20197;-70
2021/07/03 02:01:03;;;;;;;7.43;6.73;;;16.30;99.90;;;;;;5076140;28;20191;-71
2021/07/03 02:03:29;;;;;;;8.83;7.57;;;16.40;99.90;;;;;;5072771;28;20604;-71
2021/07/03 02:05:55;;;;;;;10.50;8.10;;;16.30;99.90;;;;;;5072865;28;20184;-71
2021/07/03 02:08:21;;;;;;;9.23;8.20;;;16.30;99.90;;;;;;5072457;28;20207;-71
2021/07/03 02:10:47;;;;;;;9.30;7.63;;;16.40;99.90;;;;;;5071987;28;20657;-72
2021/07/03 02:13:13;;;;;;;11.40;8.50;;;16.40;99.90;;;;;;5072665;28;20231;-71
2021/07/03 02:15:38;;;;;;;9.40;8.17;;;16.40;99.90;;;;;;5072641;28;20173;-71
2021/07/03 02:18:05;;;;;;;10.37;8.00;;;16.40;99.90;;;;;;5072787;28;20209;-71
2021/07/03 02:20:33;;;;;;;11.57;9.10;;;16.40;99.90;;;;;;5071199;28;20177;-71
2021/07/03 02:23:03;;;;;;;9.83;8.00;;;16.40;99.90;;;;;;5072334;28;20197;-71
2021/07/03 02:25:30;;;;;;;10.17;8.20;;;16.40;99.90;;;;;;5071698;28;20557;-71
2021/07/03 02:27:56;;;;;;;9.57;8.57;;;16.40;99.90;;;;;;5072471;28;20209;-71
2021/07/03 02:30:23;;;;;;;12.07;8.90;;;16.40;99.90;;;;;;5071583;28;20204;-71
2021/07/03 02:32:49;;;;;;;11.23;8.53;;;16.30;99.90;;;;;;5070250;28;20185;-71
2021/07/03 02:35:16;;;;;;;8.50;7.60;;;16.40;99.90;;;;;;5072338;28;20216;-71
2021/07/03 02:37:42;;;;;;;10.13;8.10;;;16.40;99.90;;;;;;5070502;28;20200;-71
2021/07/03 02:40:11;;;;;;;9.47;7.67;;;16.40;99.90;;;;;;5072152;28;20642;-70
2021/07/03 02:42:37;;;;;;;11.17;9.00;;;16.30;99.90;;;;;;5071166;28;20253;-71
2021/07/03 02:45:05;;;;;;;12.57;7.57;;;16.40;99.90;;;;;;5071909;28;20185;-71
2021/07/03 02:47:31;;;;;;;10.40;8.63;;;16.30;99.90;;;;;;5072992;28;20209;-71
2021/07/03 02:49:56;;;;;;;8.80;7.83;;;16.30;99.90;;;;;;5071021;28;20552;-71
2021/07/03 02:52:22;;;;;;;9.50;7.50;;;16.30;99.90;;;;;;5071765;28;20246;-71
2021/07/03 02:54:49;;;;;;;9.93;8.47;;;16.20;99.90;;;;;;5070721;28;20204;-71
2021/07/03 02:57:14;;;;;;;8.33;7.43;;;16.30;99.90;;;;;;5072224;28;20262;-71
2021/07/03 02:59:40;;;;;;;9.03;7.00;;;16.30;99.90;;;;;;5071817;28;20200;-71
2021/07/03 03:02:05;;;;;;;8.67;7.77;;;16.20;99.90;;;;;;5071033;28;20191;-70
2021/07/03 03:04:31;;;;;;;9.30;7.87;;;16.30;99.90;;;;;;5072158;28;20276;-71
2021/07/03 03:06:56;;;;;;;9.53;8.30;;;16.20;99.90;;;;;;5071231;28;20217;-71
2021/07/03 03:09:22;;;;;;;12.23;8.13;;;16.40;99.90;;;;;;5070895;28;20290;-71
2021/07/03 03:11:47;;;;;;;10.60;7.73;;;16.30;99.90;;;;;;5063256;28;20276;-71
2021/07/03 03:14:13;;;;;;;9.77;7.47;;;16.30;99.90;;;;;;5071270;28;20552;-71
2021/07/03 03:16:38;;;;;;;8.83;7.90;;;16.30;99.90;;;;;;5071530;28;20259;-71
2021/07/03 03:19:04;;;;;;;11.10;7.57;;;16.30;99.90;;;;;;5068443;28;20284;-71
2021/07/03 03:21:29;;;;;;;8.40;7.43;;;16.30;99.90;;;;;;5051315;28;20596;-70
2021/07/03 03:23:55;;;;;;;11.60;6.87;;;16.20;99.90;;;;;;5070452;28;20280;-70
2021/07/03 03:26:21;;;;;;;9.50;7.27;;;16.20;99.90;;;;;;5070285;28;20206;-70
2021/07/03 03:28:46;;;;;;;11.20;7.67;;;16.20;99.90;;;;;;5062735;28;20212;-70
2021/07/03 03:31:12;;;;;;;11.37;7.53;;;16.20;99.90;;;;;;5070338;28;20643;-70
2021/07/03 03:33:37;;;;;;;12.47;8.03;;;16.20;99.90;;;;;;5070614;28;20261;-70
2021/07/03 03:36:04;;;;;;;8.70;7.53;;;16.30;99.90;;;;;;5069387;28;20262;-71
2021/07/03 03:38:29;;;;;;;11.87;7.70;;;16.20;99.90;;;;;;5070192;28;20211;-71
2021/07/03 03:40:55;;;;;;;11.90;7.87;;;16.30;99.90;;;;;;5068961;28;20264;-71
2021/07/03 03:43:21;;;;;;;9.27;7.77;;;16.40;99.90;;;;;;5069537;28;20315;-71
2021/07/03 03:45:46;;;;;;;9.40;7.53;;;16.30;99.90;;;;;;5070042;28;20192;-71
2021/07/03 03:48:12;;;;;;;9.20;7.63;;;16.40;99.90;;;;;;5069252;28;20209;-71
2021/07/03 03:50:38;;;;;;;9.77;8.17;;;16.40;99.90;;;;;;5068684;28;20184;-71
2021/07/03 03:53:04;;;;;;;9.13;7.60;;;16.30;99.90;;;;;;5068092;28;20184;-71
2021/07/03 03:55:30;;;;;;;11.27;8.13;;;16.40;99.90;;;;;;5063476;28;20220;-71
2021/07/03 03:57:56;;;;;;;9.70;8.20;;;16.50;99.90;;;;;;5069056;28;20209;-70
2021/07/03 04:00:22;;;;;;;11.27;7.30;;;16.50;99.90;;;;;;5069703;28;20191;-71
2021/07/03 04:02:47;;;;;;;9.67;7.70;;;16.50;99.90;;;;;;5068231;28;20181;-71
2021/07/03 04:05:14;;;;;;;7.87;7.07;;;16.50;99.90;;;;;;5069851;28;20185;-71
2021/07/03 04:07:41;;;;;;;9.33;7.13;;;16.50;99.90;;;;;;5066339;28;20690;-71
2021/07/03 04:10:08;;;;;;;7.20;6.37;;;16.50;99.90;;;;;;5066954;28;20710;-70
2021/07/03 04:12:34;;;;;;;7.70;6.90;;;16.50;99.90;;;;;;5069445;28;20173;-71
2021/07/03 04:15:00;;;;;;;10.57;8.23;;;16.50;99.90;;;;;;5069440;28;20241;-70
2021/07/03 04:17:26;;;;;;;11.60;7.83;;;16.50;99.90;;;;;;5034994;28;981558;-70
2021/07/03 04:19:52;;;;;;;11.27;8.07;;;16.60;99.90;;;;;;5070465;28;20173;-70
2021/07/03 04:22:17;;;;;;;9.97;7.67;;;16.60;99.90;;;;;;5050681;28;20192;-70
2021/07/03 04:24:43;;;;;;;10.63;7.67;;;16.60;99.90;;;;;;5052520;28;20727;-70
2021/07/03 04:27:09;;;;;;;13.83;7.87;;;16.60;99.90;;;;;;5069230;28;20246;-71
2021/07/03 04:29:35;;;;;;;10.33;7.77;;;16.60;99.90;;;;;;5069007;28;20243;-71
2021/07/03 04:32:01;;;;;;;9.30;8.37;;;16.70;99.90;;;;;;5069709;28;20626;-71
2021/07/03 04:34:27;;;;;;;8.53;7.30;;;16.70;99.90;;;;;;5069857;28;20247;-71
2021/07/03 04:36:52;;;;;;;8.87;7.97;;;16.80;99.90;;;;;;5070248;28;20242;-71
2021/07/03 04:39:18;;;;;;;11.67;7.27;;;16.90;99.90;;;;;;5069354;28;20181;-71
2021/07/03 04:41:44;;;;;;;10.47;7.73;;;16.80;99.90;;;;;;5070011;28;20654;-71
2021/07/03 04:44:10;;;;;;;8.20;7.40;;;16.90;99.90;;;;;;5069391;28;20189;-71
2021/07/03 04:46:36;;;;;;;10.30;8.03;;;16.80;99.90;;;;;;5069427;28;20177;-71
2021/07/03 04:49:03;;;;;;;11.30;7.60;;;16.90;99.90;;;;;;5069104;28;20208;-71
2021/07/03 04:51:28;;;;;;;9.53;8.07;;;16.90;99.90;;;;;;5068918;28;20216;-71
2021/07/03 04:53:54;;;;;;;12.33;7.47;;;16.90;99.90;;;;;;5069547;28;20208;-70
2021/07/03 04:56:19;;;;;;;9.57;7.67;;;16.90;99.90;;;;;;5068892;28;20700;-71
2021/07/03 04:58:45;;;;;;;9.57;8.13;;;17.00;99.90;;;;;;5069718;28;20200;-71
2021/07/03 05:01:11;;;;;;;13.13;7.83;;;17.00;99.90;;;;;;5061252;28;20763;-71
2021/07/03 05:03:37;;;;;;;11.03;7.33;;;17.00;99.90;;;;;;5067450;28;20249;-71
2021/07/03 05:06:02;;;;;;;12.73;7.97;;;17.00;99.90;;;;;;5069793;28;20230;-71
2021/07/03 05:08:28;;;;;;;15.63;8.47;;;17.10;99.90;;;;;;5069711;28;20572;-71
2021/07/03 05:10:53;;;;;;;14.27;10.00;;;17.10;99.90;;;;;;5069312;28;20318;-71
2021/07/03 05:13:19;;;;;;;14.87;9.13;;;17.10;99.90;;;;;;5068292;28;20188;-71
2021/07/03 05:15:44;;;;;;;11.23;8.90;;;17.10;99.90;;;;;;5064296;28;20184;-71
2021/07/03 05:18:10;;;;;;;10.90;8.63;;;17.10;99.90;;;;;;5069026;28;20305;-71
2021/07/03 05:20:35;;;;;;;7.80;6.83;;;17.00;99.90;;;;;;5064529;28;20177;-70
2021/07/03 05:23:01;;;;;;;12.17;8.17;;;17.00;99.90;;;;;;5069410;28;20187;-71
2021/07/03 05:25:26;;;;;;;10.63;7.80;;;17.00;99.90;;;;;;5070918;28;20275;-71
2021/07/03 05:27:52;;;;;;;9.87;8.10;;;16.90;99.90;;;;;;5072215;28;20239;-70
2021/07/03 05:30:18;;;;;;;10.83;8.27;;;16.90;99.90;;;;;;5068115;28;20195;-71
2021/07/03 05:32:43;;;;;;;9.93;7.83;;;16.90;99.90;;;;;;5054214;28;20210;-71
2021/07/03 05:35:10;;;;;;;9.53;8.03;;;16.90;99.90;;;;;;5072527;28;20195;-71
2021/07/03 05:37:35;;;;;;;11.27;8.43;;;16.90;99.90;;;;;;5071820;28;20211;-70
2021/07/03 05:40:03;;;;;;;12.77;8.43;;;16.90;99.90;;;;;;5072893;28;20181;-70
2021/07/03 05:42:29;;;;;;;8.87;7.60;;;16.90;99.90;;;;;;5054226;28;20188;-70
2021/07/03 05:44:54;;;;;;;10.03;8.30;;;17.10;99.90;;;;;;5072621;28;20177;-70
2021/07/03 05:47:21;;;;;;;12.00;8.27;;;17.30;99.90;;;;;;5071810;28;20204;-70
2021/07/03 05:49:47;;;;;;;9.70;7.67;;;17.40;99.90;;;;;;5071979;28;20219;-70
2021/07/03 05:52:12;;;;;;;9.17;7.00;;;17.30;99.90;;;;;;5072688;28;20177;-70
2021/07/03 05:54:38;;;;;;;7.80;7.00;;;17.20;99.90;;;;;;5071694;28;20178;-70
2021/07/03 05:57:03;;;;;;;14.37;7.53;;;17.20;99.90;;;;;;5071353;28;20226;-70
2021/07/03 05:59:29;;;;;;;9.33;6.27;;;17.30;99.90;;;;;;5071991;28;20197;-70
2021/07/03 06:01:54;;;;;;;9.00;7.00;;;17.30;99.90;;;;;;5070486;28;20352;-70
2021/07/03 06:04:20;;;;;;;8.50;7.00;;;17.50;99.90;;;;;;5072138;28;20498;-70
2021/07/03 06:06:45;;;;;;;10.03;6.30;;;17.60;99.90;;;;;;5054321;28;20185;-70
2021/07/03 06:09:11;;;;;;;8.03;7.07;;;17.70;99.90;;;;;;5072988;28;20205;-69
2021/07/03 06:11:36;;;;;;;9.60;7.13;;;17.60;99.90;;;;;;5072649;28;20184;-69
2021/07/03 06:14:02;;;;;;;10.67;7.00;;;17.60;99.90;;;;;;5074232;28;20255;-69
2021/07/03 06:16:28;;;;;;;10.27;8.03;;;17.70;99.90;;;;;;5072615;28;20227;-69
2021/07/03 06:18:55;;;;;;;8.63;6.60;;;17.70;99.90;;;;;;5071387;28;20584;-69
2021/07/03 06:21:21;;;;;;;10.30;7.30;;;17.60;99.90;;;;;;5054950;28;20264;-69
2021/07/03 06:23:46;;;;;;;10.10;7.40;;;17.60;99.90;;;;;;5071707;28;20264;-69
2021/07/03 06:26:12;;;;;;;11.13;7.37;;;17.60;99.90;;;;;;5072473;28;20188;-69
2021/07/03 06:28:37;;;;;;;11.30;8.07;;;17.60;99.90;;;;;;5072151;28;20673;-69
2021/07/03 06:31:03;;;;;;;11.90;8.00;;;17.50;99.90;;;;;;5072101;28;20180;-69
2021/07/03 06:33:29;;;;;;;9.70;7.47;;;17.50;99.90;;;;;;5072301;28;20657;-69
2021/07/03 06:35:54;;;;;;;14.13;9.23;;;17.50;99.90;;;;;;5069656;28;20173;-69
2021/07/03 06:38:20;;;;;;;10.40;7.60;;;17.50;99.90;;;;;;5070681;28;20208;-69
2021/07/03 06:40:45;;;;;;;10.10;7.30;;;17.40;99.90;;;;;;5064127;28;20186;-69
2021/07/03 06:43:11;;;;;;;13.23;8.17;;;17.30;99.90;;;;;;5072031;28;20674;-68
2021/07/03 06:45:36;;;;;;;11.23;7.70;;;17.30;99.90;;;;;;5067791;28;20237;-70
2021/07/03 06:48:02;;;;;;;10.47;8.33;;;17.30;99.90;;;;;;5067215;28;20232;-69
2021/07/03 06:50:28;;;;;;;12.60;8.67;;;17.30;99.90;;;;;;5071146;28;20561;-70
2021/07/03 06:52:53;;;;;;;12.77;8.73;;;17.20;99.90;;;;;;5067874;28;20221;-70
2021/07/03 06:55:19;;;;;;;9.57;8.03;;;17.40;99.90;;;;;;5071525;28;20181;-69
2021/07/03 06:57:44;;;;;;;14.13;8.13;;;17.50;99.90;;;;;;5062513;28;20194;-69
2021/07/03 07:00:10;;;;;;;11.03;8.33;;;17.40;99.90;;;;;;5070079;28;20298;-69
2021/07/03 07:02:36;;;;;;;11.50;8.30;;;17.40;99.90;;;;;;5067955;28;20575;-69
2021/07/03 07:05:04;;;;;;;14.13;7.97;;;17.60;99.90;;;;;;5052234;28;20185;-70
2021/07/03 07:07:29;;;;;;;12.63;8.03;;;17.60;99.90;;;;;;5070771;28;20687;-69
2021/07/03 07:09:55;;;;;;;14.17;7.97;;;17.70;99.90;;;;;;5069006;28;20299;-68
2021/07/03 07:12:20;;;;;;;14.57;8.13;;;17.80;99.90;;;;;;5070549;28;20250;-68
2021/07/03 07:14:46;;;;;;;11.77;8.43;;;17.90;99.90;;;;;;5071072;28;20187;-71
2021/07/03 07:17:11;;;;;;;8.97;6.60;;;18.10;99.90;;;;;;5076302;22;20227;-75
2021/07/03 07:19:37;;;;;;;9.87;7.57;;;18.30;99.90;;;;;;5049913;28;20204;-76
2021/07/03 07:22:03;;;;;;;13.80;7.63;;;18.20;99.90;;;;;;5049492;28;20174;-76
2021/07/03 07:24:29;;;;;;;8.80;7.03;;;18.10;99.90;;;;;;5050293;28;20189;-77
2021/07/03 07:26:54;;;;;;;9.97;7.73;;;18.10;99.90;;;;;;5050635;28;20207;-77
2021/07/03 07:29:20;;;;;;;13.37;8.20;;;18.00;99.90;;;;;;5051128;28;20582;-76
2021/07/03 07:31:47;;;;;;;11.03;7.50;;;18.00;99.90;;;;;;5033560;28;20605;-77
2021/07/03 07:34:12;;;;;;;9.43;6.57;;;18.10;99.90;;;;;;5051033;28;20216;-77
2021/07/03 07:36:38;;;;;;;13.57;6.93;;;17.90;99.90;;;;;;5050643;28;20209;-77
2021/07/03 07:39:04;;;;;;;9.57;7.23;;;17.90;99.90;;;;;;5051929;28;20219;-77
2021/07/03 07:41:30;;;;;;;10.37;8.33;;;17.80;99.90;;;;;;5055409;28;20212;-77
2021/07/03 07:43:56;;;;;;;11.57;8.13;;;17.70;99.90;;;;;;5058707;28;20189;-77
2021/07/03 07:46:22;;;;;;;12.47;8.20;;;17.60;99.90;;;;;;5052835;28;20186;-75
2021/07/03 07:48:47;;;;;;;11.13;7.90;;;17.60;99.90;;;;;;5049242;28;20232;-76
2021/07/03 07:51:13;;;;;;;9.33;7.53;;;17.50;99.90;;;;;;5050654;28;20178;-76
2021/07/03 07:53:38;;;;;;;9.57;7.43;;;17.40;99.90;;;;;;5050084;28;20646;-76
2021/07/03 07:56:04;;;;;;;13.37;8.37;;;17.50;99.90;;;;;;5049605;28;20173;-75
2021/07/03 07:58:30;;;;;;;11.50;8.10;;;17.60;99.90;;;;;;5042214;28;20550;-77
2021/07/03 08:00:55;;;;;;;12.50;8.33;;;17.50;99.90;;;;;;5050087;28;20713;-77
2021/07/03 08:03:21;;;;;;;10.47;8.20;;;17.60;99.90;;;;;;5049149;28;20182;-77
2021/07/03 08:05:47;;;;;;;13.90;8.77;;;17.50;99.90;;;;;;5050539;28;20308;-77
2021/07/03 08:08:13;;;;;;;8.30;6.87;;;17.60;99.90;;;;;;5049009;28;20201;-77
2021/07/03 08:10:40;;;;;;;9.17;7.50;;;17.60;99.90;;;;;;5032215;28;20178;-77
2021/07/03 08:13:07;;;;;;;9.60;7.03;;;17.60;99.90;;;;;;5048459;28;20598;-77
2021/07/03 08:15:33;;;;;;;11.37;7.20;;;17.50;99.90;;;;;;5049631;28;20205;-77
2021/07/03 08:18:00;;;;;;;9.00;7.13;;;17.50;99.90;;;;;;5049874;28;20629;-77
2021/07/03 08:20:26;;;;;;;7.23;6.50;;;17.60;99.90;;;;;;5048772;28;20587;-68
2021/07/03 08:22:53;;;;;;;9.27;7.30;;;17.70;99.90;;;;;;5049814;28;20177;-69
2021/07/03 08:25:20;;;;;;;12.27;6.90;;;17.80;99.90;;;;;;5048926;28;20662;-77
2021/07/03 08:27:48;;;;;;;7.63;6.83;;;18.10;99.90;;;;;;5049629;28;20288;-77
2021/07/03 08:30:15;;;;;;;9.47;6.80;;;18.20;99.90;;;;;;5047945;28;20177;-75
2021/07/03 08:32:41;;;;;;;9.30;6.10;;;18.20;99.90;;;;;;5047491;28;20757;-76
2021/07/03 08:35:08;;;;;;;9.80;6.77;;;18.10;99.90;;;;;;5049314;28;20238;-76
2021/07/03 08:37:33;;;;;;;8.57;6.77;;;18.10;99.90;;;;;;5045238;28;20611;-75
2021/07/03 08:39:59;;;;;;;9.63;6.70;;;18.20;99.90;;;;;;5049743;28;20184;-75
2021/07/03 08:42:24;;;;;;;6.40;5.80;;;18.20;99.90;;;;;;5048230;28;20260;-75
2021/07/03 08:44:50;;;;;;;9.57;6.63;;;18.20;99.90;;;;;;5049687;28;20277;-75
2021/07/03 08:47:17;;;;;;;10.47;6.70;;;18.30;99.90;;;;;;5048769;28;20204;-75
2021/07/03 08:49:53;;;;;;;8.07;6.80;;;18.40;99.90;;;;;;5024581;28;20229;-75
2021/07/03 08:52:19;;;;;;;7.53;6.27;;;18.20;99.90;;;;;;5048904;28;20177;-75
2021/07/03 08:54:55;;;;;;;7.53;6.57;;;18.10;99.90;;;;;;5049134;28;20170;-75
2021/07/03 08:57:20;;;;;;;10.17;6.30;;;18.20;99.90;;;;;;5048672;28;20197;-75
2021/07/03 08:59:54;;;;;;;9.00;6.33;;;18.20;99.90;;;;;;5048602;28;20234;-75
2021/07/03 09:02:30;;;;;;;6.60;5.90;;;18.20;99.90;;;;;;5048385;28;20339;-75
2021/07/03 09:04:55;;;;;;;6.23;4.83;;;18.10;99.90;;;;;;5048362;28;20596;-75
2021/07/03 09:07:22;;;;;;;6.17;5.30;;;18.00;99.90;;;;;;5028197;28;20223;-75
2021/07/03 09:09:55;;;;;;;5.43;4.60;;;18.00;99.90;;;;;;5049686;28;20482;-75
2021/07/03 09:12:32;;;;;;;7.60;5.17;;;18.00;99.90;;;;;;5049108;28;20185;-75
2021/07/03 09:15:19;;;;;;;6.93;5.00;;;18.00;99.90;;;;;;5049189;28;20166;-75
2021/07/03 09:17:52;;;;;;;5.77;5.13;;;17.90;99.90;;;;;;5048803;28;20240;-75
2021/07/03 09:20:24;;;;;;;6.07;4.70;;;18.00;99.90;;;;;;5048987;28;20231;-75
2021/07/03 09:22:50;;;;;;;6.27;5.50;;;18.10;99.90;;;;;;5048817;28;20586;-75
2021/07/03 09:25:20;;;;;;;4.63;4.23;;;18.10;99.90;;;;;;5049394;28;20248;-76
2021/07/03 09:27:47;;;;;;;4.87;4.37;;;18.20;99.90;;;;;;5048860;28;20199;-76
2021/07/03 09:30:15;;;;;;;5.47;3.97;;;18.30;99.90;;;;;;5048746;28;20574;-74
2021/07/03 09:32:48;;;;;;;4.67;4.20;;;18.30;99.90;;;;;;5048675;28;20178;-75
2021/07/03 09:35:14;;;;;;;4.83;3.80;;;18.30;99.90;;;;;;5048738;28;20181;-76
2021/07/03 09:37:39;;;;;;;3.63;3.27;;;18.30;99.90;;;;;;5048581;28;20575;-74
2021/07/03 09:40:09;;;;;;;4.40;3.93;;;18.40;99.90;;;;;;5049097;28;20185;-74
2021/07/03 09:42:40;;;;;;;3.70;3.40;;;18.60;99.90;;;;;;5048286;28;20250;-75
2021/07/03 09:45:06;;;;;;;5.67;3.80;;;18.60;99.90;;;;;;5049702;28;20240;-74
2021/07/03 09:47:33;;;;;;;4.80;3.80;;;18.70;99.90;;;;;;5049623;28;20220;-73
2021/07/03 09:50:13;;;;;;;3.50;2.93;;;18.60;99.90;;;;;;5049312;28;20848;-74
2021/07/03 09:52:39;;;;;;;4.03;3.57;;;18.80;99.90;;;;;;5054989;28;20166;-74
2021/07/03 09:55:07;;;;;;;3.80;3.50;;;18.70;99.90;;;;;;5034644;28;20635;-74
2021/07/03 09:57:37;;;;;;;3.67;3.30;;;18.70;99.90;;;;;;5051123;28;20289;-74
2021/07/03 10:00:09;;;;;;;3.53;3.17;;;18.90;99.90;;;;;;5066878;28;20161;-74
2021/07/03 10:02:35;;;;;;;3.30;3.00;;;19.10;99.90;;;;;;5069008;28;20166;-73
2021/07/03 10:05:01;;;;;;;3.50;2.83;;;18.80;99.90;;;;;;5073488;28;20193;-75
2021/07/03 10:07:35;;;;;;;2.97;2.67;;;18.80;99.90;;;;;;5057561;28;20222;-75
2021/07/03 10:10:11;;;;;;;2.80;2.60;;;18.80;99.90;;;;;;5076476;28;20209;-76
2021/07/03 10:12:41;;;;;;;3.83;2.90;;;18.80;99.90;;;;;;5066304;28;20212;-74
2021/07/03 10:15:07;;;;;;;2.97;2.70;;;19.10;99.90;;;;;;5064411;28;20181;-75
2021/07/03 10:17:34;;;;;;;2.90;2.70;;;19.40;99.90;;;;;;5061738;28;20286;-74
2021/07/03 10:20:02;;;;;;;4.03;2.90;;;19.40;99.90;;;;;;5056048;28;20837;-75
2021/07/03 10:22:30;;;;;;;5.47;3.00;;;19.20;99.90;;;;;;5051786;28;20185;-74
2021/07/03 10:24:58;;;;;;;3.07;2.77;;;19.10;99.90;;;;;;5050950;28;20540;-74
2021/07/03 10:27:29;;;;;;;4.17;2.60;;;18.90;99.90;;;;;;5057850;28;20201;-72
2021/07/03 10:30:01;;;;;;;4.23;2.50;;;18.80;99.90;;;;;;5050107;28;20283;-71
2021/07/03 10:32:30;;;;;;;2.80;2.47;;;18.70;99.90;;;;;;5052029;28;20182;-72
2021/07/03 10:35:12;;;;;;;2.57;2.37;;;18.60;99.90;;;;;;5045933;28;20538;-77
2021/07/03 10:37:38;;;;;;;3.10;2.33;;;18.50;99.90;;;;;;5052312;28;20284;-78
2021/07/03 10:40:27;;;;;;;2.20;2.00;;;18.60;99.90;;;;;;5044042;28;20270;-76
2021/07/03 10:43:06;;;;;;;2.50;1.97;;;18.50;99.90;;;;;;5051105;28;20182;-76
2021/07/03 10:45:42;;;;;;;2.80;2.33;;;18.40;99.90;;;;;;5050771;28;20177;-76
2021/07/03 10:48:17;;;;;;;3.70;2.20;;;18.40;99.90;;;;;;5052761;28;20670;-73
2021/07/03 10:50:43;;;;;;;3.03;2.03;;;18.30;99.90;;;;;;5054446;28;20173;-75
2021/07/03 10:53:28;;;;;;;2.67;2.43;;;18.30;99.90;;;;;;5052333;28;20178;-75
2021/07/03 10:56:06;;;;;;;2.37;2.17;;;18.30;99.90;;;;;;5051350;28;20214;-75
2021/07/03 10:58:37;;;;;;;2.90;2.23;;;18.40;99.90;;;;;;5051290;28;20407;-74
2021/07/03 11:01:08;;;;;;;2.20;2.00;;;18.50;99.90;;;;;;5050787;28;20178;-75
2021/07/03 11:03:43;;;;;;;2.40;2.20;;;18.50;99.90;;;;;;5051154;28;20177;-76
2021/07/03 11:06:21;;;;;;;2.50;2.30;;;18.50;99.90;;;;;;5054246;28;20181;-75
2021/07/03 11:08:48;;;;;;;3.33;2.73;;;18.50;99.90;;;;;;5052109;28;20300;-75
2021/07/03 11:11:16;;;;;;;3.23;2.53;;;18.50;99.90;;;;;;5049109;28;20590;-75
2021/07/03 11:13:44;;;;;;;2.80;2.37;;;18.40;99.90;;;;;;5033539;28;20204;-75
2021/07/03 11:16:12;;;;;;;3.20;2.90;;;18.50;99.90;;;;;;5050133;28;20197;-75
2021/07/03 11:18:38;;;;;;;2.90;2.43;;;18.30;99.90;;;;;;5050975;28;20246;-75
2021/07/03 11:21:08;;;;;;;3.37;3.07;;;18.20;99.90;;;;;;5049459;28;20189;-75
2021/07/03 11:23:35;;;;;;;2.70;2.50;;;18.10;99.90;;;;;;5033281;28;20306;-72
2021/07/03 11:26:07;;;;;;;3.27;2.50;;;18.10;99.90;;;;;;5050801;28;20196;-78
2021/07/03 11:28:33;;;;;;;2.93;2.63;;;18.10;99.90;;;;;;5043493;28;20201;-76
2021/07/03 11:31:01;;;;;;;4.00;2.13;;;18.20;99.90;;;;;;5050498;28;20173;-76
2021/07/03 11:33:33;;;;;;;3.90;2.60;;;18.20;99.90;;;;;;5032469;28;20271;-78
2021/07/03 11:35:59;;;;;;;3.63;3.30;;;18.30;99.90;;;;;;5050728;28;20535;-76
2021/07/03 11:38:26;;;;;;;4.13;3.63;;;18.40;99.90;;;;;;5049500;28;20209;-77
2021/07/03 11:40:56;;;;;;;3.90;2.80;;;18.40;99.90;;;;;;5049816;28;20192;-72
2021/07/03 11:43:22;;;;;;;4.23;3.90;;;18.30;99.90;;;;;;5030495;28;20201;-75
2021/07/03 11:45:48;;;;;;;3.03;2.70;;;18.40;99.90;;;;;;5049902;28;20185;-75
2021/07/03 11:48:19;;;;;;;3.50;3.10;;;18.50;99.90;;;;;;5030847;28;20205;-75
2021/07/03 11:50:56;;;;;;;3.20;2.83;;;18.50;99.90;;;;;;5049706;28;20181;-74
2021/07/03 11:53:26;;;;;;;2.47;2.27;;;18.40;99.90;;;;;;5046221;28;20188;-75
2021/07/03 11:55:54;;;;;;;4.13;2.70;;;18.40;99.90;;;;;;5049760;28;20201;-75
2021/07/03 11:58:25;;;;;;;3.30;3.00;;;18.40;99.90;;;;;;5048635;28;20753;-76
2021/07/03 12:00:56;;;;;;;4.07;3.50;;;18.20;99.90;;;;;;5048182;28;20285;-76
2021/07/03 12:03:30;;;;;;;4.47;3.33;;;18.30;99.90;;;;;;5050485;28;20268;-75
2021/07/03 12:05:57;;;;;;;4.67;3.30;;;18.20;99.90;;;;;;5031936;28;20669;-75
2021/07/03 12:08:30;;;;;;;4.30;2.80;;;18.10;99.90;;;;;;5048597;28;20546;-77
2021/07/03 12:11:01;;;;;;;2.90;2.53;;;18.10;99.90;;;;;;5047775;28;20535;-77
2021/07/03 12:13:32;;;;;;;4.73;3.07;;;18.00;99.90;;;;;;5052318;28;20170;-77
2021/07/03 12:15:57;;;;;;;3.00;2.77;;;18.10;99.90;;;;;;5052856;28;20189;-77
2021/07/03 12:18:29;;;;;;;3.43;3.13;;;18.10;99.90;;;;;;5048220;28;20217;-73
2021/07/03 12:21:18;;;;;;;3.60;3.30;;;17.90;99.90;;;;;;5049585;28;20185;-77
2021/07/03 12:23:46;;;;;;;3.70;3.03;;;17.90;99.90;;;;;;5051728;28;20700;-75
2021/07/03 12:26:19;;;;;;;5.40;3.03;;;17.80;99.90;;;;;;5052836;28;20265;-75
2021/07/03 12:29:00;;;;;;;3.60;3.30;;;17.80;99.90;;;;;;5048884;28;20625;-76
2021/07/03 12:31:45;;;;;;;3.80;2.97;;;17.70;99.90;;;;;;5048870;28;20180;-75
2021/07/03 12:34:22;;;;;;;3.57;3.03;;;17.70;99.90;;;;;;5050369;28;20243;-75
2021/07/03 12:36:50;;;;;;;3.53;3.23;;;17.80;99.90;;;;;;5050126;28;20192;-75
2021/07/03 12:39:18;;;;;;;4.90;3.27;;;17.90;99.90;;;;;;5050570;28;20620;-75
2021/07/03 12:41:47;;;;;;;3.27;2.97;;;18.00;99.90;;;;;;5049705;28;20216;-76
2021/07/03 12:44:12;;;;;;;4.33;3.50;;;17.90;99.90;;;;;;5052297;28;20727;-74